createdAt,value
2023-02-11T00:00:46.300Z,40.40
2023-02-11T00:03:50.490Z,35.10
2023-02-11T00:06:53.207Z,42.97
2023-02-11T00:09:55.918Z,37.23
2023-02-11T00:12:58.906Z,38.10
2023-02-11T00:16:01.609Z,41.75
2023-02-11T00:19:06.561Z,36.93
2023-02-11T00:22:09.342Z,35.83
2023-02-11T00:25:12.011Z,38.85
2023-02-11T00:28:14.821Z,32.53
2023-02-11T00:31:19.135Z,37.57
2023-02-11T00:34:23.224Z,33.27
2023-02-11T00:37:25.835Z,40.20
2023-02-11T00:40:28.837Z,37.27
2023-02-11T00:43:31.556Z,42.92
2023-02-11T00:46:34.320Z,39.67
2023-02-11T00:49:40.329Z,38.13
2023-02-11T00:52:43.019Z,38.53
2023-02-11T00:55:45.732Z,40.67
2023-02-11T00:58:48.621Z,42.85
2023-02-11T01:01:51.375Z,35.55
2023-02-11T01:04:55.424Z,34.65
2023-02-11T01:07:58.231Z,34.90
2023-02-11T01:11:02.807Z,38.50
2023-02-11T01:14:05.536Z,43.70
2023-02-11T01:17:08.348Z,42.47
2023-02-11T01:20:17.284Z,44.23
2023-02-11T01:23:20.040Z,43.70
2023-02-11T01:26:22.737Z,42.97
2023-02-11T01:29:26.259Z,46.08
2023-02-11T01:32:29.281Z,41.95
2023-02-11T01:35:33.570Z,47.50
2023-02-11T01:38:36.531Z,39.75
2023-02-11T01:41:39.545Z,38.67
2023-02-11T01:44:42.343Z,41.03
2023-02-11T01:47:45.331Z,41.42
2023-02-11T01:50:52.006Z,39.65
2023-02-11T01:54:12.984Z,39.13
2023-02-11T01:57:25.283Z,38.80
2023-02-11T02:00:32.514Z,39.55
2023-02-11T02:03:37.829Z,44.42
2023-02-11T02:06:47.711Z,42.70
2023-02-11T02:09:56.598Z,44.03
2023-02-11T02:12:59.213Z,36.83
2023-02-11T02:16:03.462Z,37.45
2023-02-11T02:19:46.653Z,42.28
2023-02-11T02:23:22.016Z,37.87
2023-02-11T02:26:44.343Z,36.95
2023-02-11T02:30:07.917Z,40.80
2023-02-11T02:33:23.123Z,38.70
2023-02-11T02:36:39.197Z,41.15
2023-02-11T02:39:41.950Z,46.72
2023-02-11T02:42:45.372Z,38.15
2023-02-11T02:45:48.405Z,37.88
2023-02-11T02:48:53.643Z,40.88
2023-02-11T02:52:05.624Z,41.73
2023-02-11T02:55:17.283Z,35.90
2023-02-11T02:58:38.958Z,37.10
2023-02-11T03:01:47.950Z,40.23
2023-02-11T03:04:56.897Z,41.67
2023-02-11T03:08:04.015Z,41.47
2023-02-11T03:11:07.435Z,36.53
2023-02-11T03:14:16.112Z,39.30
2023-02-11T03:17:19.681Z,40.63
2023-02-11T03:20:24.249Z,40.85
2023-02-11T03:23:30.871Z,40.23
2023-02-11T03:26:38.429Z,37.40
2023-02-11T03:29:45.211Z,40.97
2023-02-11T03:32:51.375Z,39.97
2023-02-11T03:35:57.455Z,42.42
2023-02-11T03:39:02.261Z,44.83
2023-02-11T03:42:05.968Z,41.00
2023-02-11T03:45:11.534Z,33.90
2023-02-11T03:48:17.158Z,37.70
2023-02-11T03:51:22.417Z,43.83
2023-02-11T03:54:28.663Z,38.08
2023-02-11T03:57:34.300Z,39.70
2023-02-11T04:00:39.617Z,40.20
2023-02-11T04:03:42.875Z,39.78
2023-02-11T04:06:47.012Z,38.53
2023-02-11T04:09:49.677Z,39.73
2023-02-11T04:12:52.860Z,43.17
2023-02-11T04:15:55.624Z,38.72
2023-02-11T04:18:58.440Z,36.80
2023-02-11T04:22:02.804Z,43.47
2023-02-11T04:25:06.096Z,40.30
2023-02-11T04:28:08.923Z,37.15
2023-02-11T04:31:12.122Z,38.70
2023-02-11T04:34:15.019Z,38.33
2023-02-11T04:37:19.091Z,34.58
2023-02-11T04:40:22.665Z,32.87
2023-02-11T04:43:25.353Z,35.45
2023-02-11T04:46:28.052Z,35.23
2023-02-11T04:49:31.078Z,39.80
2023-02-11T04:52:35.113Z,38.10
2023-02-11T04:55:37.747Z,37.60
2023-02-11T04:58:40.590Z,38.70
2023-02-11T05:01:44.039Z,33.37
2023-02-11T05:04:46.706Z,36.22
2023-02-11T05:07:50.984Z,35.27
2023-02-11T05:10:53.773Z,34.30
2023-02-11T05:13:56.446Z,42.17
2023-02-11T05:16:59.199Z,39.40
2023-02-11T05:20:02.451Z,40.83
2023-02-11T05:23:06.635Z,34.42
2023-02-11T05:26:10.121Z,36.83
2023-02-11T05:29:12.824Z,36.50
2023-02-11T05:32:15.579Z,36.20
2023-02-11T05:35:18.829Z,34.87
2023-02-11T05:38:22.926Z,37.47
2023-02-11T05:41:25.704Z,40.23
2023-02-11T05:44:29.205Z,35.93
2023-02-11T05:47:31.989Z,37.88
2023-02-11T05:50:34.733Z,38.70
2023-02-11T05:53:38.809Z,34.87
2023-02-11T05:56:44.429Z,39.43
2023-02-11T05:59:48.167Z,34.30
2023-02-11T06:02:51.187Z,36.63
2023-02-11T06:05:54.032Z,33.65
2023-02-11T06:12:01.678Z,35.03
2023-02-11T06:15:05.600Z,36.08
2023-02-11T06:21:12.158Z,32.90
2023-02-11T06:24:21.657Z,34.15
2023-02-11T06:27:31.445Z,34.03
2023-02-11T06:30:34.241Z,35.40
2023-02-11T06:33:37.186Z,37.70
2023-02-11T06:36:41.108Z,41.15
2023-02-11T06:42:50.659Z,34.13
2023-02-11T06:45:54.449Z,36.27
2023-02-11T06:51:59.744Z,33.20
2023-02-11T06:55:02.739Z,40.37
2023-02-11T06:58:06.745Z,37.97
2023-02-11T07:01:11.973Z,35.70
2023-02-11T07:04:21.432Z,31.37
2023-02-11T07:07:24.200Z,30.23
2023-02-11T07:10:26.924Z,34.07
2023-02-11T07:13:31.025Z,34.07
2023-02-11T07:16:34.096Z,37.10
2023-02-11T07:19:37.316Z,34.13
2023-02-11T07:22:40.112Z,37.53
2023-02-11T07:25:42.731Z,35.43
2023-02-11T07:28:47.118Z,39.27
2023-02-11T07:31:50.591Z,34.53
2023-02-11T07:34:53.675Z,35.47
2023-02-11T07:37:56.616Z,35.47
2023-02-11T07:41:01.367Z,34.03
2023-02-11T07:44:05.852Z,36.40
2023-02-11T07:47:08.675Z,35.60
2023-02-11T07:50:11.527Z,32.53
2023-02-11T07:53:14.391Z,37.60
2023-02-11T07:56:18.076Z,40.67
2023-02-11T07:59:22.393Z,29.08
2023-02-11T08:02:26.939Z,39.07
2023-02-11T08:05:30.523Z,38.90
2023-02-11T08:08:33.339Z,36.95
2023-02-11T08:11:36.965Z,34.77
2023-02-11T08:14:41.373Z,29.20
2023-02-11T08:17:44.165Z,33.10
2023-02-11T08:20:46.934Z,33.63
2023-02-11T08:23:50.493Z,36.37
2023-02-11T08:26:53.200Z,32.70
2023-02-11T08:29:59.671Z,35.43
2023-02-11T08:33:02.762Z,32.73
2023-02-11T08:36:10.030Z,31.98
2023-02-11T08:39:19.672Z,37.63
2023-02-11T08:42:23.051Z,35.87
2023-02-11T08:45:27.233Z,34.40
2023-02-11T08:48:30.088Z,36.83
2023-02-11T08:51:34.473Z,32.90
2023-02-11T08:54:38.347Z,33.47
2023-02-11T09:00:45.397Z,37.43
2023-02-11T09:03:48.555Z,36.73
2023-02-11T09:06:51.413Z,35.10
2023-02-11T09:09:54.491Z,34.85
2023-02-11T09:12:57.380Z,34.95
2023-02-11T09:16:02.205Z,38.75
2023-02-11T09:19:06.346Z,30.40
2023-02-11T09:22:09.317Z,34.50
2023-02-11T09:25:12.262Z,31.98
2023-02-11T09:28:15.001Z,36.00
2023-02-11T09:31:21.665Z,41.27
2023-02-11T09:34:24.414Z,39.23
2023-02-11T09:37:27.090Z,32.23
2023-02-11T09:40:29.872Z,36.33
2023-02-11T09:43:34.692Z,37.13
2023-02-11T09:46:42.463Z,36.00
2023-02-11T09:49:48.493Z,33.37
2023-02-11T09:52:57.084Z,38.67
2023-02-11T09:56:02.425Z,34.47
2023-02-11T09:59:05.802Z,37.33
2023-02-11T10:02:14.503Z,33.88
2023-02-11T10:05:27.143Z,35.90
2023-02-11T10:08:37.797Z,35.00
2023-02-11T10:11:50.440Z,34.50
2023-02-11T10:15:15.014Z,41.60
2023-02-11T10:18:48.322Z,35.53
2023-02-11T10:21:59.932Z,29.93
2023-02-11T10:25:23.521Z,34.17
2023-02-11T10:28:45.223Z,34.70
2023-02-11T10:31:48.878Z,33.27
2023-02-11T10:34:53.677Z,36.40
2023-02-11T10:38:06.451Z,27.87
2023-02-11T10:41:39.343Z,29.80
2023-02-11T10:44:44.750Z,34.00
2023-02-11T10:47:47.405Z,36.17
2023-02-11T10:50:51.892Z,32.20
2023-02-11T10:54:14.342Z,34.20
2023-02-11T10:57:22.698Z,35.50
2023-02-11T11:00:36.794Z,33.30
2023-02-11T11:06:44.221Z,27.58
2023-02-11T11:09:51.499Z,32.73
2023-02-11T11:12:54.157Z,30.90
2023-02-11T11:16:16.393Z,28.07
2023-02-11T11:19:23.128Z,27.13
2023-02-11T11:22:27.471Z,27.47
2023-02-11T11:25:31.143Z,25.33
2023-02-11T11:31:48.999Z,29.23
2023-02-11T11:34:54.096Z,26.97
2023-02-11T11:38:02.033Z,19.83
2023-02-11T11:41:20.723Z,23.70
2023-02-11T11:44:30.088Z,22.23
2023-02-11T11:47:41.854Z,20.87
2023-02-11T11:50:47.205Z,20.77
2023-02-11T11:53:56.138Z,16.47
2023-02-11T11:57:01.583Z,18.83
2023-02-11T12:00:04.700Z,18.40
2023-02-11T12:03:45.064Z,19.17
2023-02-11T12:07:01.599Z,18.60
2023-02-11T12:10:29.761Z,21.20
2023-02-11T12:13:44.337Z,17.60
2023-02-11T12:16:55.233Z,16.93
2023-02-11T12:20:14.251Z,13.50
2023-02-11T12:23:30.065Z,16.57
2023-02-11T12:26:39.164Z,16.47
2023-02-11T12:29:53.426Z,13.50
2023-02-11T12:33:04.858Z,19.00
2023-02-11T12:36:12.079Z,15.23
2023-02-11T12:39:25.908Z,14.57
2023-02-11T12:46:35.918Z,12.47
2023-02-11T12:50:06.182Z,14.17
2023-02-11T12:53:24.250Z,11.37
2023-02-11T12:56:35.736Z,10.83
2023-02-11T12:59:49.955Z,12.83
2023-02-11T13:02:56.152Z,12.17
2023-02-11T13:06:01.534Z,13.57
2023-02-11T13:09:06.000Z,8.23
2023-02-11T13:12:24.291Z,10.43
2023-02-11T13:15:30.244Z,12.03
2023-02-11T13:18:41.469Z,10.40
2023-02-11T13:21:56.176Z,9.17
2023-02-11T13:25:03.690Z,12.83
2023-02-11T13:28:18.641Z,13.83
2023-02-11T13:31:26.763Z,18.90
2023-02-11T13:34:57.238Z,22.37
2023-02-11T13:38:00.694Z,18.10
2023-02-11T13:41:06.268Z,18.45
2023-02-11T13:44:25.096Z,18.00
2023-02-11T13:47:32.124Z,16.03
2023-02-11T13:50:39.491Z,17.87
2023-02-11T13:53:47.957Z,19.57
2023-02-11T13:57:32.459Z,18.27
2023-02-11T14:00:46.272Z,21.85
2023-02-11T14:10:52.150Z,19.37
2023-02-11T14:14:17.299Z,19.33
2023-02-11T14:17:27.796Z,17.00
2023-02-11T14:20:54.032Z,20.53
2023-02-11T14:24:37.181Z,18.57
2023-02-11T14:27:43.648Z,20.90
2023-02-11T14:30:52.326Z,20.70
2023-02-11T14:34:06.514Z,16.27
2023-02-11T14:37:18.913Z,21.63
2023-02-11T14:40:32.042Z,14.38
2023-02-11T14:43:37.512Z,17.47
2023-02-11T14:46:45.399Z,20.40
2023-02-11T14:49:49.047Z,22.43
2023-02-11T14:55:56.237Z,16.57
2023-02-11T14:58:59.280Z,16.93
2023-02-11T15:02:02.195Z,15.90
2023-02-11T15:05:21.065Z,17.73
2023-02-11T15:08:23.926Z,18.13
2023-02-11T15:11:30.309Z,14.38
2023-02-11T15:14:34.544Z,19.07
2023-02-11T15:17:37.403Z,17.30
2023-02-11T15:20:42.345Z,22.02
2023-02-11T15:23:56.649Z,16.77
2023-02-11T15:27:02.955Z,20.17
2023-02-11T15:30:21.439Z,16.60
2023-02-11T15:33:25.458Z,18.57
2023-02-11T15:36:33.132Z,20.67
2023-02-11T15:39:38.392Z,19.10
2023-02-11T15:42:56.763Z,21.43
2023-02-11T15:46:02.641Z,16.00
2023-02-11T15:49:08.040Z,15.63
2023-02-11T15:52:10.768Z,21.37
2023-02-11T15:55:15.051Z,16.17
2023-02-11T15:58:19.162Z,21.43
2023-02-11T16:01:33.163Z,17.77
2023-02-11T16:04:37.800Z,19.43
2023-02-11T16:07:46.238Z,19.40
2023-02-11T16:10:58.661Z,13.60
2023-02-11T16:14:06.632Z,21.77
2023-02-11T16:17:11.452Z,26.77
2023-02-11T16:20:19.821Z,21.00
2023-02-11T16:23:24.806Z,18.83
2023-02-11T16:26:31.514Z,23.90
2023-02-11T16:29:37.714Z,24.47
2023-02-11T16:32:40.581Z,30.60
2023-02-11T16:35:44.940Z,18.25
2023-02-11T16:38:47.638Z,20.33
2023-02-11T16:41:51.597Z,23.10
2023-02-11T16:44:55.599Z,20.87
2023-02-11T16:47:58.443Z,25.63
2023-02-11T16:51:01.093Z,25.30
2023-02-11T16:54:03.895Z,23.50
2023-02-11T16:57:10.346Z,24.63
2023-02-11T17:00:17.696Z,24.23
2023-02-11T17:03:23.243Z,23.00
2023-02-11T17:06:25.993Z,24.23
2023-02-11T17:09:31.099Z,23.17
2023-02-11T17:12:34.005Z,20.57
2023-02-11T17:15:38.037Z,28.37
2023-02-11T17:18:40.830Z,28.53
2023-02-11T17:21:43.974Z,23.50
2023-02-11T17:24:47.047Z,29.80
2023-02-11T17:27:52.542Z,26.50
2023-02-11T17:30:56.849Z,24.63
2023-02-11T17:33:59.541Z,26.87
2023-02-11T17:37:08.865Z,23.87
2023-02-11T17:40:12.999Z,26.40
2023-02-11T17:43:16.027Z,25.10
2023-02-11T17:46:20.226Z,28.80
2023-02-11T17:49:22.968Z,25.90
2023-02-11T17:52:27.932Z,31.70
2023-02-11T17:55:33.775Z,20.90
2023-02-11T17:58:36.634Z,28.87
2023-02-11T18:01:42.164Z,27.90
2023-02-11T18:04:44.900Z,28.00
2023-02-11T18:07:48.759Z,25.13
2023-02-11T18:13:54.562Z,21.57
2023-02-11T18:16:58.668Z,25.73
2023-02-11T18:20:01.455Z,25.37
2023-02-11T18:23:04.293Z,24.43
2023-02-11T18:26:08.311Z,29.42
2023-02-11T18:29:11.153Z,23.80
2023-02-11T18:32:15.456Z,28.77
2023-02-11T18:35:20.226Z,29.17
2023-02-11T18:38:23.298Z,28.47
2023-02-11T18:41:26.034Z,24.33
2023-02-11T18:44:29.162Z,28.77
2023-02-11T18:47:33.773Z,28.73
2023-02-11T18:50:36.794Z,28.87
2023-02-11T18:53:40.023Z,27.00
2023-02-11T18:56:42.910Z,29.63
2023-02-11T18:59:45.549Z,26.95
2023-02-11T19:02:49.842Z,28.97
2023-02-11T19:05:54.631Z,22.73
2023-02-11T19:08:59.964Z,25.93
2023-02-11T19:12:03.025Z,26.47
2023-02-11T19:15:07.387Z,23.30
2023-02-11T19:18:11.829Z,29.87
2023-02-11T19:21:14.652Z,30.20
2023-02-11T19:24:19.735Z,30.17
2023-02-11T19:27:22.440Z,26.10
2023-02-11T19:30:25.069Z,27.50
2023-02-11T19:33:29.107Z,27.97
2023-02-11T19:36:31.990Z,26.87
2023-02-11T19:39:34.701Z,31.90
2023-02-11T19:42:37.403Z,29.73
2023-02-11T19:45:40.101Z,33.57
2023-02-11T19:48:44.089Z,35.73
2023-02-11T19:51:47.072Z,29.27
2023-02-11T19:54:49.826Z,30.73
2023-02-11T19:57:52.538Z,33.97
2023-02-11T20:00:55.661Z,32.57
2023-02-11T20:03:59.654Z,35.85
2023-02-11T20:07:02.287Z,36.67
2023-02-11T20:10:05.517Z,41.10
2023-02-11T20:13:08.625Z,41.92
2023-02-11T20:16:12.793Z,36.50
2023-02-11T20:19:18.398Z,36.33
2023-02-11T20:22:21.368Z,142.17
2023-02-11T20:25:23.992Z,39.67
2023-02-11T20:28:26.727Z,35.13
2023-02-11T20:31:29.944Z,38.22
2023-02-11T20:34:33.949Z,41.35
2023-02-11T20:37:36.677Z,35.37
2023-02-11T20:40:39.305Z,35.23
2023-02-11T20:43:42.504Z,35.03
2023-02-11T20:46:47.072Z,40.35
2023-02-11T20:49:51.488Z,33.03
2023-02-11T20:52:54.118Z,31.10
2023-02-11T20:55:56.880Z,34.57
2023-02-11T20:59:00.907Z,33.07
2023-02-11T21:02:04.037Z,31.53
2023-02-11T21:05:08.741Z,33.58
2023-02-11T21:08:11.597Z,32.17
2023-02-11T21:11:14.718Z,26.85
2023-02-11T21:14:17.906Z,32.97
2023-02-11T21:17:21.046Z,23.73
2023-02-11T21:20:25.465Z,33.17
2023-02-11T21:23:29.116Z,35.23
2023-02-11T21:26:31.974Z,34.30
2023-02-11T21:29:40.450Z,29.25
2023-02-11T21:32:48.458Z,30.98
2023-02-11T21:35:56.030Z,32.70
2023-02-11T21:39:00.165Z,34.43
2023-02-11T21:42:02.847Z,31.93
2023-02-11T21:45:05.858Z,34.17
2023-02-11T21:48:08.475Z,38.08
2023-02-11T21:51:14.448Z,33.57
2023-02-11T21:54:18.746Z,35.93
2023-02-11T21:57:21.506Z,33.53
2023-02-11T22:00:24.702Z,33.60
2023-02-11T22:03:27.431Z,37.45
2023-02-11T22:06:32.964Z,35.57
2023-02-11T22:09:35.624Z,31.17
2023-02-11T22:12:38.298Z,37.73
2023-02-11T22:15:41.208Z,37.20
2023-02-11T22:18:45.814Z,39.08
2023-02-11T22:21:49.834Z,42.40
2023-02-11T22:24:54.133Z,41.13
2023-02-11T22:27:56.832Z,41.43
2023-02-11T22:30:59.664Z,40.83
2023-02-11T22:34:03.072Z,41.80
2023-02-11T22:37:07.618Z,36.90
2023-02-11T22:40:11.116Z,34.97
2023-02-11T22:43:13.794Z,41.83
2023-02-11T22:46:18.724Z,33.73
2023-02-11T22:49:23.112Z,36.33
2023-02-11T22:52:28.394Z,39.03
2023-02-11T22:55:31.202Z,37.73
2023-02-11T22:58:34.776Z,37.28
2023-02-11T23:01:37.476Z,38.00
2023-02-11T23:04:40.483Z,37.17
2023-02-11T23:07:44.471Z,37.65
2023-02-11T23:10:47.200Z,40.10
2023-02-11T23:13:51.800Z,34.17
2023-02-11T23:16:54.453Z,32.07
2023-02-11T23:19:57.253Z,43.17
2023-02-11T23:23:01.306Z,30.80
2023-02-11T23:26:04.383Z,35.00
2023-02-11T23:29:07.508Z,38.38
2023-02-11T23:32:10.349Z,33.63
2023-02-11T23:35:18.510Z,36.55
2023-02-11T23:38:22.632Z,32.93
2023-02-11T23:41:27.159Z,33.23
2023-02-11T23:44:30.107Z,35.03
2023-02-11T23:47:33.220Z,38.25
2023-02-11T23:50:35.882Z,33.72
2023-02-11T23:53:40.555Z,35.13
2023-02-11T23:56:43.517Z,32.20
2023-02-11T23:59:49.934Z,35.40
